sensor_id;sensor_type;location;lat;lon;timestamp;temperature;humidity
23311;DHT22;11828;51.508;18.118;2022-09-09T00:00:47;32.70;43.80
23311;DHT22;11828;51.508;18.118;2022-09-09T00:03:38;32.60;43.70
23311;DHT22;11828;51.508;18.118;2022-09-09T00:06:24;32.60;43.60
23311;DHT22;11828;51.508;18.118;2022-09-09T00:09:16;32.60;43.60
23311;DHT22;11828;51.508;18.118;2022-09-09T00:11:51;32.60;44.20
23311;DHT22;11828;51.508;18.118;2022-09-09T00:17:00;32.60;44.00
23311;DHT22;11828;51.508;18.118;2022-09-09T00:19:44;32.70;43.80
23311;DHT22;11828;51.508;18.118;2022-09-09T00:22:18;32.70;43.80
23311;DHT22;11828;51.508;18.118;2022-09-09T00:24:55;32.70;43.40
23311;DHT22;11828;51.508;18.118;2022-09-09T00:27:27;32.70;43.60
23311;DHT22;11828;51.508;18.118;2022-09-09T00:30:23;32.70;43.60
23311;DHT22;11828;51.508;18.118;2022-09-09T00:32:54;32.70;43.60
23311;DHT22;11828;51.508;18.118;2022-09-09T00:35:34;32.70;43.40
23311;DHT22;11828;51.508;18.118;2022-09-09T00:38:15;32.70;43.30
23311;DHT22;11828;51.508;18.118;2022-09-09T00:41:00;32.70;43.40
23311;DHT22;11828;51.508;18.118;2022-09-09T00:57:28;32.80;42.50
23311;DHT22;11828;51.508;18.118;2022-09-09T01:06:32;32.70;42.50
23311;DHT22;11828;51.508;18.118;2022-09-09T01:14:44;32.70;41.90
23311;DHT22;11828;51.508;18.118;2022-09-09T01:17:30;32.60;42.00
23311;DHT22;11828;51.508;18.118;2022-09-09T01:20:08;32.50;42.10
23311;DHT22;11828;51.508;18.118;2022-09-09T01:27:53;32.40;42.20
23311;DHT22;11828;51.508;18.118;2022-09-09T01:30:23;32.50;42.00
23311;DHT22;11828;51.508;18.118;2022-09-09T01:32:53;32.50;41.80
23311;DHT22;11828;51.508;18.118;2022-09-09T01:38:02;32.40;41.60
23311;DHT22;11828;51.508;18.118;2022-09-09T01:40:28;32.40;41.70
23311;DHT22;11828;51.508;18.118;2022-09-09T01:42:54;32.40;41.70
23311;DHT22;11828;51.508;18.118;2022-09-09T01:45:21;32.30;41.50
23311;DHT22;11828;51.508;18.118;2022-09-09T01:47:47;32.40;41.70
23311;DHT22;11828;51.508;18.118;2022-09-09T01:50:15;32.40;41.60
23311;DHT22;11828;51.508;18.118;2022-09-09T01:52:44;32.40;41.30
23311;DHT22;11828;51.508;18.118;2022-09-09T01:55:14;32.30;41.10
23311;DHT22;11828;51.508;18.118;2022-09-09T01:58:00;32.30;41.10
23311;DHT22;11828;51.508;18.118;2022-09-09T02:01:27;32.30;41.20
23311;DHT22;11828;51.508;18.118;2022-09-09T02:04:05;32.30;41.00
23311;DHT22;11828;51.508;18.118;2022-09-09T02:06:38;32.40;40.90
23311;DHT22;11828;51.508;18.118;2022-09-09T02:09:07;32.30;40.90
23311;DHT22;11828;51.508;18.118;2022-09-09T02:11:37;32.30;40.90
23311;DHT22;11828;51.508;18.118;2022-09-09T02:14:12;32.30;40.90
23311;DHT22;11828;51.508;18.118;2022-09-09T02:16:44;32.30;40.70
23311;DHT22;11828;51.508;18.118;2022-09-09T02:19:19;32.30;40.70
23311;DHT22;11828;51.508;18.118;2022-09-09T02:21:56;32.10;40.60
23311;DHT22;11828;51.508;18.118;2022-09-09T02:24:23;32.10;40.80
23311;DHT22;11828;51.508;18.118;2022-09-09T02:26:52;32.10;41.00
23311;DHT22;11828;51.508;18.118;2022-09-09T02:29:23;32.10;40.80
23311;DHT22;11828;51.508;18.118;2022-09-09T02:31:53;32.10;40.80
23311;DHT22;11828;51.508;18.118;2022-09-09T02:34:23;32.10;40.80
23311;DHT22;11828;51.508;18.118;2022-09-09T02:36:50;32.10;40.90
23311;DHT22;11828;51.508;18.118;2022-09-09T02:39:19;32.10;40.80
23311;DHT22;11828;51.508;18.118;2022-09-09T02:41:45;32.20;40.60
23311;DHT22;11828;51.508;18.118;2022-09-09T02:44:14;32.10;40.40
23311;DHT22;11828;51.508;18.118;2022-09-09T02:47:08;32.10;40.70
23311;DHT22;11828;51.508;18.118;2022-09-09T02:50:00;32.10;40.70
23311;DHT22;11828;51.508;18.118;2022-09-09T02:53:06;32.00;40.40
23311;DHT22;11828;51.508;18.118;2022-09-09T02:55:46;32.00;40.50
23311;DHT22;11828;51.508;18.118;2022-09-09T02:58:16;32.00;40.40
23311;DHT22;11828;51.508;18.118;2022-09-09T03:00:46;31.90;40.20
23311;DHT22;11828;51.508;18.118;2022-09-09T03:03:15;31.90;40.20
23311;DHT22;11828;51.508;18.118;2022-09-09T03:05:45;31.90;40.90
23311;DHT22;11828;51.508;18.118;2022-09-09T03:08:12;31.80;40.20
23311;DHT22;11828;51.508;18.118;2022-09-09T03:10:38;31.80;40.10
23311;DHT22;11828;51.508;18.118;2022-09-09T03:13:05;31.70;40.10
23311;DHT22;11828;51.508;18.118;2022-09-09T03:15:32;31.70;40.20
23311;DHT22;11828;51.508;18.118;2022-09-09T03:17:59;31.70;40.20
23311;DHT22;11828;51.508;18.118;2022-09-09T03:20:27;31.70;40.10
23311;DHT22;11828;51.508;18.118;2022-09-09T03:22:54;31.70;40.00
23311;DHT22;11828;51.508;18.118;2022-09-09T03:25:22;31.70;40.00
23311;DHT22;11828;51.508;18.118;2022-09-09T03:27:50;31.60;39.90
23311;DHT22;11828;51.508;18.118;2022-09-09T03:30:24;31.60;40.10
23311;DHT22;11828;51.508;18.118;2022-09-09T03:32:51;31.60;40.20
23311;DHT22;11828;51.508;18.118;2022-09-09T03:35:18;31.60;40.20
23311;DHT22;11828;51.508;18.118;2022-09-09T03:37:44;31.60;40.00
23311;DHT22;11828;51.508;18.118;2022-09-09T03:40:13;31.60;40.00
23311;DHT22;11828;51.508;18.118;2022-09-09T03:42:39;31.60;40.00
23311;DHT22;11828;51.508;18.118;2022-09-09T03:45:07;31.60;40.00
23311;DHT22;11828;51.508;18.118;2022-09-09T03:47:35;31.60;39.60
23311;DHT22;11828;51.508;18.118;2022-09-09T03:50:01;31.60;39.60
23311;DHT22;11828;51.508;18.118;2022-09-09T04:03:26;30.90;40.20
23311;DHT22;11828;51.508;18.118;2022-09-09T04:05:53;30.00;43.00
23311;DHT22;11828;51.508;18.118;2022-09-09T04:08:20;30.20;42.50
23311;DHT22;11828;51.508;18.118;2022-09-09T04:10:48;30.40;41.90
23311;DHT22;11828;51.508;18.118;2022-09-09T04:13:17;30.60;41.40
23311;DHT22;11828;51.508;18.118;2022-09-09T04:15:54;30.70;41.00
23311;DHT22;11828;51.508;18.118;2022-09-09T04:18:23;30.80;40.60
23311;DHT22;11828;51.508;18.118;2022-09-09T04:20:50;30.90;40.30
23311;DHT22;11828;51.508;18.118;2022-09-09T04:23:18;31.00;40.20
23311;DHT22;11828;51.508;18.118;2022-09-09T04:25:47;31.00;39.80
23311;DHT22;11828;51.508;18.118;2022-09-09T04:28:16;31.00;39.80
23311;DHT22;11828;51.508;18.118;2022-09-09T04:30:44;31.10;39.70
23311;DHT22;11828;51.508;18.118;2022-09-09T04:33:11;31.10;39.70
23311;DHT22;11828;51.508;18.118;2022-09-09T04:35:39;31.20;39.60
23311;DHT22;11828;51.508;18.118;2022-09-09T04:38:05;31.20;39.40
23311;DHT22;11828;51.508;18.118;2022-09-09T04:40:34;31.30;39.50
23311;DHT22;11828;51.508;18.118;2022-09-09T04:43:01;31.30;39.50
23311;DHT22;11828;51.508;18.118;2022-09-09T04:45:31;31.30;39.50
23311;DHT22;11828;51.508;18.118;2022-09-09T04:47:58;31.30;39.60
23311;DHT22;11828;51.508;18.118;2022-09-09T04:50:24;31.20;39.40
23311;DHT22;11828;51.508;18.118;2022-09-09T04:52:51;31.30;39.40
23311;DHT22;11828;51.508;18.118;2022-09-09T04:55:17;31.30;39.20
23311;DHT22;11828;51.508;18.118;2022-09-09T04:57:43;31.30;39.30
23311;DHT22;11828;51.508;18.118;2022-09-09T05:00:09;31.30;39.40
23311;DHT22;11828;51.508;18.118;2022-09-09T05:02:39;31.30;39.40
23311;DHT22;11828;51.508;18.118;2022-09-09T05:05:08;31.30;40.00
23311;DHT22;11828;51.508;18.118;2022-09-09T05:07:34;31.30;39.30
23311;DHT22;11828;51.508;18.118;2022-09-09T05:10:00;31.30;39.40
23311;DHT22;11828;51.508;18.118;2022-09-09T05:12:26;31.30;39.50
23311;DHT22;11828;51.508;18.118;2022-09-09T05:14:52;31.30;39.50
23311;DHT22;11828;51.508;18.118;2022-09-09T05:17:18;31.40;40.20
23311;DHT22;11828;51.508;18.118;2022-09-09T05:19:44;31.30;39.50
23311;DHT22;11828;51.508;18.118;2022-09-09T05:22:10;31.40;39.50
23311;DHT22;11828;51.508;18.118;2022-09-09T05:24:38;31.40;39.50
23311;DHT22;11828;51.508;18.118;2022-09-09T05:27:04;31.40;39.70
23311;DHT22;11828;51.508;18.118;2022-09-09T05:29:32;31.50;39.60
23311;DHT22;11828;51.508;18.118;2022-09-09T05:31:59;31.60;39.60
23311;DHT22;11828;51.508;18.118;2022-09-09T05:34:25;31.60;39.50
23311;DHT22;11828;51.508;18.118;2022-09-09T05:36:51;31.70;39.70
23311;DHT22;11828;51.508;18.118;2022-09-09T05:39:18;31.70;39.60
23311;DHT22;11828;51.508;18.118;2022-09-09T05:41:44;31.70;39.70
23311;DHT22;11828;51.508;18.118;2022-09-09T05:44:10;31.80;39.80
23311;DHT22;11828;51.508;18.118;2022-09-09T05:46:36;31.80;39.60
23311;DHT22;11828;51.508;18.118;2022-09-09T05:49:02;31.90;39.60
23311;DHT22;11828;51.508;18.118;2022-09-09T05:51:29;31.90;39.60
23311;DHT22;11828;51.508;18.118;2022-09-09T05:53:58;31.90;40.30
23311;DHT22;11828;51.508;18.118;2022-09-09T05:56:26;32.00;39.80
23311;DHT22;11828;51.508;18.118;2022-09-09T05:58:54;32.00;39.80
23311;DHT22;11828;51.508;18.118;2022-09-09T06:01:22;32.00;39.70
23311;DHT22;11828;51.508;18.118;2022-09-09T06:03:50;32.10;39.60
23311;DHT22;11828;51.508;18.118;2022-09-09T06:06:19;32.10;39.90
23311;DHT22;11828;51.508;18.118;2022-09-09T06:08:50;32.10;39.90
23311;DHT22;11828;51.508;18.118;2022-09-09T06:11:19;32.20;40.00
23311;DHT22;11828;51.508;18.118;2022-09-09T06:13:47;32.20;40.00
23311;DHT22;11828;51.508;18.118;2022-09-09T06:16:15;32.20;40.00
23311;DHT22;11828;51.508;18.118;2022-09-09T06:18:43;32.30;40.10
23311;DHT22;11828;51.508;18.118;2022-09-09T06:21:16;32.30;39.90
23311;DHT22;11828;51.508;18.118;2022-09-09T06:23:44;32.40;40.00
23311;DHT22;11828;51.508;18.118;2022-09-09T06:26:22;32.50;40.00
23311;DHT22;11828;51.508;18.118;2022-09-09T06:28:52;32.70;39.90
23311;DHT22;11828;51.508;18.118;2022-09-09T06:31:21;32.80;39.90
23311;DHT22;11828;51.508;18.118;2022-09-09T06:33:50;33.00;40.40
23311;DHT22;11828;51.508;18.118;2022-09-09T06:36:23;33.10;39.60
23311;DHT22;11828;51.508;18.118;2022-09-09T06:38:50;33.30;39.80
23311;DHT22;11828;51.508;18.118;2022-09-09T06:41:18;33.40;39.80
23311;DHT22;11828;51.508;18.118;2022-09-09T06:43:45;33.60;40.10
23311;DHT22;11828;51.508;18.118;2022-09-09T06:46:15;34.00;40.40
23311;DHT22;11828;51.508;18.118;2022-09-09T06:48:43;34.70;40.30
23311;DHT22;11828;51.508;18.118;2022-09-09T06:51:15;35.50;39.80
23311;DHT22;11828;51.508;18.118;2022-09-09T06:53:45;36.30;38.90
23311;DHT22;11828;51.508;18.118;2022-09-09T06:56:29;37.20;38.40
23311;DHT22;11828;51.508;18.118;2022-09-09T06:58:59;38.40;36.00
23311;DHT22;11828;51.508;18.118;2022-09-09T07:01:34;39.50;35.90
23311;DHT22;11828;51.508;18.118;2022-09-09T07:04:03;40.40;34.60
23311;DHT22;11828;51.508;18.118;2022-09-09T07:06:32;41.30;34.00
23311;DHT22;11828;51.508;18.118;2022-09-09T07:09:01;42.00;32.70
23311;DHT22;11828;51.508;18.118;2022-09-09T07:11:34;42.70;31.90
23311;DHT22;11828;51.508;18.118;2022-09-09T07:14:03;43.40;31.40
23311;DHT22;11828;51.508;18.118;2022-09-09T07:16:29;43.90;30.90
23311;DHT22;11828;51.508;18.118;2022-09-09T07:18:57;44.30;29.60
23311;DHT22;11828;51.508;18.118;2022-09-09T07:21:25;44.80;28.60
23311;DHT22;11828;51.508;18.118;2022-09-09T07:23:52;45.40;27.50
23311;DHT22;11828;51.508;18.118;2022-09-09T07:26:21;45.80;27.20
23311;DHT22;11828;51.508;18.118;2022-09-09T07:28:48;46.30;27.00
23311;DHT22;11828;51.508;18.118;2022-09-09T07:31:21;46.70;26.00
23311;DHT22;11828;51.508;18.118;2022-09-09T07:33:57;47.00;25.40
23311;DHT22;11828;51.508;18.118;2022-09-09T07:36:25;47.30;24.80
23311;DHT22;11828;51.508;18.118;2022-09-09T07:38:55;47.70;24.60
23311;DHT22;11828;51.508;18.118;2022-09-09T07:41:46;48.00;24.40
23311;DHT22;11828;51.508;18.118;2022-09-09T07:44:18;48.20;23.30
23311;DHT22;11828;51.508;18.118;2022-09-09T07:46:47;48.40;24.30
23311;DHT22;11828;51.508;18.118;2022-09-09T07:49:13;48.20;24.50
23311;DHT22;11828;51.508;18.118;2022-09-09T07:51:43;48.10;23.80
23311;DHT22;11828;51.508;18.118;2022-09-09T07:54:12;48.10;23.40
23311;DHT22;11828;51.508;18.118;2022-09-09T07:56:41;48.50;23.70
23311;DHT22;11828;51.508;18.118;2022-09-09T07:59:08;49.20;21.80
23311;DHT22;11828;51.508;18.118;2022-09-09T08:01:42;49.80;21.10
23311;DHT22;11828;51.508;18.118;2022-09-09T08:04:15;49.90;21.70
23311;DHT22;11828;51.508;18.118;2022-09-09T08:06:47;50.40;21.90
23311;DHT22;11828;51.508;18.118;2022-09-09T08:09:19;50.80;21.80
23311;DHT22;11828;51.508;18.118;2022-09-09T08:11:46;51.20;22.00
23311;DHT22;11828;51.508;18.118;2022-09-09T08:14:13;51.50;21.40
23311;DHT22;11828;51.508;18.118;2022-09-09T08:16:44;51.70;20.80
23311;DHT22;11828;51.508;18.118;2022-09-09T08:19:12;52.10;20.20
23311;DHT22;11828;51.508;18.118;2022-09-09T08:21:42;52.50;21.40
23311;DHT22;11828;51.508;18.118;2022-09-09T08:24:09;52.50;20.70
23311;DHT22;11828;51.508;18.118;2022-09-09T08:26:39;52.90;23.00
23311;DHT22;11828;51.508;18.118;2022-09-09T08:29:09;53.20;19.20
23311;DHT22;11828;51.508;18.118;2022-09-09T08:34:14;53.40;50.40
23311;DHT22;11828;51.508;18.118;2022-09-09T08:36:43;53.70;33.90
23311;DHT22;11828;51.508;18.118;2022-09-09T08:39:12;53.70;18.70
23311;DHT22;11828;51.508;18.118;2022-09-09T08:50:29;54.30;17.00
23311;DHT22;11828;51.508;18.118;2022-09-09T08:53:20;53.00;18.70
23311;DHT22;11828;51.508;18.118;2022-09-09T08:55:56;51.70;18.10
23311;DHT22;11828;51.508;18.118;2022-09-09T08:58:29;51.30;19.00
23311;DHT22;11828;51.508;18.118;2022-09-09T09:01:09;51.70;18.60
23311;DHT22;11828;51.508;18.118;2022-09-09T09:07:16;51.80;18.70
23311;DHT22;11828;51.508;18.118;2022-09-09T09:12:29;52.60;18.10
23311;DHT22;11828;51.508;18.118;2022-09-09T09:14:59;52.60;18.10
23311;DHT22;11828;51.508;18.118;2022-09-09T09:17:27;52.50;18.10
23311;DHT22;11828;51.508;18.118;2022-09-09T09:19:57;52.10;18.20
23311;DHT22;11828;51.508;18.118;2022-09-09T09:22:41;51.80;18.30
23311;DHT22;11828;51.508;18.118;2022-09-09T09:25:25;51.50;18.30
23311;DHT22;11828;51.508;18.118;2022-09-09T09:28:07;50.90;18.60
23311;DHT22;11828;51.508;18.118;2022-09-09T09:30:53;50.50;18.80
23311;DHT22;11828;51.508;18.118;2022-09-09T09:33:46;50.10;19.00
23311;DHT22;11828;51.508;18.118;2022-09-09T09:36:14;50.30;19.40
23311;DHT22;11828;51.508;18.118;2022-09-09T09:38:58;50.50;19.20
23311;DHT22;11828;51.508;18.118;2022-09-09T09:41:32;50.70;19.80
23311;DHT22;11828;51.508;18.118;2022-09-09T09:44:01;50.70;19.10
23311;DHT22;11828;51.508;18.118;2022-09-09T09:46:28;50.20;19.40
23311;DHT22;11828;51.508;18.118;2022-09-09T09:48:59;49.60;19.70
23311;DHT22;11828;51.508;18.118;2022-09-09T09:51:28;49.10;19.70
23311;DHT22;11828;51.508;18.118;2022-09-09T09:56:40;47.70;20.80
23311;DHT22;11828;51.508;18.118;2022-09-09T09:59:23;47.20;21.10
23311;DHT22;11828;51.508;18.118;2022-09-09T10:04:38;46.60;21.20
23311;DHT22;11828;51.508;18.118;2022-09-09T10:07:19;46.50;21.30
23311;DHT22;11828;51.508;18.118;2022-09-09T10:09:53;46.20;21.40
23311;DHT22;11828;51.508;18.118;2022-09-09T10:12:24;45.90;21.10
23311;DHT22;11828;51.508;18.118;2022-09-09T10:20:56;45.70;36.10
23311;DHT22;11828;51.508;18.118;2022-09-09T10:26:35;45.40;21.40
23311;DHT22;11828;51.508;18.118;2022-09-09T10:40:39;43.80;22.50
23311;DHT22;11828;51.508;18.118;2022-09-09T10:55:09;42.40;23.10
23311;DHT22;11828;51.508;18.118;2022-09-09T10:57:49;42.30;23.10
23311;DHT22;11828;51.508;18.118;2022-09-09T11:03:02;42.10;22.70
23311;DHT22;11828;51.508;18.118;2022-09-09T11:05:35;42.00;23.40
23311;DHT22;11828;51.508;18.118;2022-09-09T11:08:16;41.90;23.30
23311;DHT22;11828;51.508;18.118;2022-09-09T11:16:39;41.60;23.90
23311;DHT22;11828;51.508;18.118;2022-09-09T11:19:24;41.50;23.70
23311;DHT22;11828;51.508;18.118;2022-09-09T11:21:55;41.30;23.80
23311;DHT22;11828;51.508;18.118;2022-09-09T11:36:09;40.90;24.80
23311;DHT22;11828;51.508;18.118;2022-09-09T11:38:44;41.00;24.50
23311;DHT22;11828;51.508;18.118;2022-09-09T11:41:13;40.90;24.50
23311;DHT22;11828;51.508;18.118;2022-09-09T11:46:12;40.80;24.30
23311;DHT22;11828;51.508;18.118;2022-09-09T11:48:43;40.70;24.40
23311;DHT22;11828;51.508;18.118;2022-09-09T11:56:32;40.80;24.30
23311;DHT22;11828;51.508;18.118;2022-09-09T11:59:04;41.10;23.80
23311;DHT22;11828;51.508;18.118;2022-09-09T12:01:39;41.30;24.00
23311;DHT22;11828;51.508;18.118;2022-09-09T12:07:46;41.60;24.00
23311;DHT22;11828;51.508;18.118;2022-09-09T12:10:04;41.60;23.70
23311;DHT22;11828;51.508;18.118;2022-09-09T12:12:35;41.20;23.70
23311;DHT22;11828;51.508;18.118;2022-09-09T12:17:45;40.60;24.30
23311;DHT22;11828;51.508;18.118;2022-09-09T12:20:37;40.30;24.40
23311;DHT22;11828;51.508;18.118;2022-09-09T12:26:43;40.50;24.60
23311;DHT22;11828;51.508;18.118;2022-09-09T12:29:27;40.70;23.90
23311;DHT22;11828;51.508;18.118;2022-09-09T12:37:26;40.50;23.50
23311;DHT22;11828;51.508;18.118;2022-09-09T12:40:06;40.40;23.30
23311;DHT22;11828;51.508;18.118;2022-09-09T12:42:46;40.20;23.70
23311;DHT22;11828;51.508;18.118;2022-09-09T12:45:20;40.10;24.10
23311;DHT22;11828;51.508;18.118;2022-09-09T12:50:24;39.90;24.80
23311;DHT22;11828;51.508;18.118;2022-09-09T12:53:14;39.90;24.90
23311;DHT22;11828;51.508;18.118;2022-09-09T12:55:56;39.90;24.70
23311;DHT22;11828;51.508;18.118;2022-09-09T12:58:24;40.10;24.40
23311;DHT22;11828;51.508;18.118;2022-09-09T13:00:55;40.30;24.40
23311;DHT22;11828;51.508;18.118;2022-09-09T13:03:22;40.20;24.30
23311;DHT22;11828;51.508;18.118;2022-09-09T13:08:19;40.50;24.10
23311;DHT22;11828;51.508;18.118;2022-09-09T13:10:58;40.70;24.20
23311;DHT22;11828;51.508;18.118;2022-09-09T13:13:35;40.70;24.00
23311;DHT22;11828;51.508;18.118;2022-09-09T13:16:05;40.90;24.10
23311;DHT22;11828;51.508;18.118;2022-09-09T13:18:36;40.90;23.90
23311;DHT22;11828;51.508;18.118;2022-09-09T13:21:05;40.90;23.90
23311;DHT22;11828;51.508;18.118;2022-09-09T13:23:33;40.90;24.10
23311;DHT22;11828;51.508;18.118;2022-09-09T13:28:50;40.80;23.80
23311;DHT22;11828;51.508;18.118;2022-09-09T13:31:30;40.80;23.90
23311;DHT22;11828;51.508;18.118;2022-09-09T13:33:58;40.80;24.10
23311;DHT22;11828;51.508;18.118;2022-09-09T13:36:30;40.70;23.90
23311;DHT22;11828;51.508;18.118;2022-09-09T13:38:58;40.80;23.90
23311;DHT22;11828;51.508;18.118;2022-09-09T13:41:36;41.10;23.90
23311;DHT22;11828;51.508;18.118;2022-09-09T13:44:25;41.10;23.80
23311;DHT22;11828;51.508;18.118;2022-09-09T13:49:38;41.00;23.50
23311;DHT22;11828;51.508;18.118;2022-09-09T13:52:10;41.00;23.30
23311;DHT22;11828;51.508;18.118;2022-09-09T13:54:41;41.10;23.50
23311;DHT22;11828;51.508;18.118;2022-09-09T13:57:18;41.10;23.60
23311;DHT22;11828;51.508;18.118;2022-09-09T13:59:47;41.10;23.80
23311;DHT22;11828;51.508;18.118;2022-09-09T14:02:14;41.10;23.80
23311;DHT22;11828;51.508;18.118;2022-09-09T14:04:42;40.90;23.80
23311;DHT22;11828;51.508;18.118;2022-09-09T14:07:15;40.80;23.70
23311;DHT22;11828;51.508;18.118;2022-09-09T14:09:43;40.40;23.50
23311;DHT22;11828;51.508;18.118;2022-09-09T14:12:11;40.30;23.80
23311;DHT22;11828;51.508;18.118;2022-09-09T14:14:38;40.20;24.00
23311;DHT22;11828;51.508;18.118;2022-09-09T14:17:04;40.10;24.10
23311;DHT22;11828;51.508;18.118;2022-09-09T14:19:30;40.00;24.20
23311;DHT22;11828;51.508;18.118;2022-09-09T14:21:57;39.80;24.10
23311;DHT22;11828;51.508;18.118;2022-09-09T14:24:23;39.70;24.60
23311;DHT22;11828;51.508;18.118;2022-09-09T14:26:50;39.60;24.30
23311;DHT22;11828;51.508;18.118;2022-09-09T14:29:16;39.30;24.40
23311;DHT22;11828;51.508;18.118;2022-09-09T14:31:43;39.20;24.60
23311;DHT22;11828;51.508;18.118;2022-09-09T14:34:09;39.10;24.90
23311;DHT22;11828;51.508;18.118;2022-09-09T14:36:37;39.10;25.00
23311;DHT22;11828;51.508;18.118;2022-09-09T14:39:04;39.10;24.90
23311;DHT22;11828;51.508;18.118;2022-09-09T14:41:30;39.10;24.90
23311;DHT22;11828;51.508;18.118;2022-09-09T14:43:56;39.10;25.00
23311;DHT22;11828;51.508;18.118;2022-09-09T14:46:22;39.00;25.10
23311;DHT22;11828;51.508;18.118;2022-09-09T14:48:49;38.90;25.20
23311;DHT22;11828;51.508;18.118;2022-09-09T14:51:23;38.80;25.00
23311;DHT22;11828;51.508;18.118;2022-09-09T14:53:54;38.60;25.20
23311;DHT22;11828;51.508;18.118;2022-09-09T14:56:24;38.50;25.30
23311;DHT22;11828;51.508;18.118;2022-09-09T14:58:56;38.50;25.30
23311;DHT22;11828;51.508;18.118;2022-09-09T15:01:23;38.50;25.40
23311;DHT22;11828;51.508;18.118;2022-09-09T15:03:52;38.40;25.50
23311;DHT22;11828;51.508;18.118;2022-09-09T15:06:30;38.30;25.60
23311;DHT22;11828;51.508;18.118;2022-09-09T15:09:00;38.20;26.10
23311;DHT22;11828;51.508;18.118;2022-09-09T15:11:28;38.10;26.10
23311;DHT22;11828;51.508;18.118;2022-09-09T15:13:56;38.00;26.20
23311;DHT22;11828;51.508;18.118;2022-09-09T15:16:26;38.10;26.20
23311;DHT22;11828;51.508;18.118;2022-09-09T15:18:55;38.00;26.30
23311;DHT22;11828;51.508;18.118;2022-09-09T15:21:24;37.90;26.20
23311;DHT22;11828;51.508;18.118;2022-09-09T15:23:57;37.90;26.40
23311;DHT22;11828;51.508;18.118;2022-09-09T15:26:24;37.90;26.50
23311;DHT22;11828;51.508;18.118;2022-09-09T15:28:51;37.80;26.50
23311;DHT22;11828;51.508;18.118;2022-09-09T15:31:23;37.90;26.30
23311;DHT22;11828;51.508;18.118;2022-09-09T15:33:53;38.00;26.40
23311;DHT22;11828;51.508;18.118;2022-09-09T15:36:47;38.20;26.50
23311;DHT22;11828;51.508;18.118;2022-09-09T15:39:15;38.10;26.70
23311;DHT22;11828;51.508;18.118;2022-09-09T15:41:44;38.20;26.70
23311;DHT22;11828;51.508;18.118;2022-09-09T15:44:12;38.00;26.70
23311;DHT22;11828;51.508;18.118;2022-09-09T15:46:39;37.80;26.90
23311;DHT22;11828;51.508;18.118;2022-09-09T15:49:27;37.80;27.00
23311;DHT22;11828;51.508;18.118;2022-09-09T15:51:56;37.70;27.20
23311;DHT22;11828;51.508;18.118;2022-09-09T15:54:30;37.60;27.20
23311;DHT22;11828;51.508;18.118;2022-09-09T15:56:59;37.50;27.30
23311;DHT22;11828;51.508;18.118;2022-09-09T15:59:29;37.40;27.40
23311;DHT22;11828;51.508;18.118;2022-09-09T16:01:56;37.40;27.60
23311;DHT22;11828;51.508;18.118;2022-09-09T16:04:26;37.30;27.70
23311;DHT22;11828;51.508;18.118;2022-09-09T16:06:57;37.40;28.00
23311;DHT22;11828;51.508;18.118;2022-09-09T16:09:25;37.30;27.90
23311;DHT22;11828;51.508;18.118;2022-09-09T16:11:52;37.30;27.90
23311;DHT22;11828;51.508;18.118;2022-09-09T16:14:22;37.30;27.80
23311;DHT22;11828;51.508;18.118;2022-09-09T16:16:47;37.40;27.90
23311;DHT22;11828;51.508;18.118;2022-09-09T16:19:14;37.40;28.10
23311;DHT22;11828;51.508;18.118;2022-09-09T16:21:42;37.30;28.20
23311;DHT22;11828;51.508;18.118;2022-09-09T16:24:12;37.20;28.40
23311;DHT22;11828;51.508;18.118;2022-09-09T16:26:43;37.20;28.60
23311;DHT22;11828;51.508;18.118;2022-09-09T16:29:11;37.10;28.80
23311;DHT22;11828;51.508;18.118;2022-09-09T16:31:38;37.00;28.90
23311;DHT22;11828;51.508;18.118;2022-09-09T16:34:06;36.90;28.90
23311;DHT22;11828;51.508;18.118;2022-09-09T16:36:35;37.00;28.90
23311;DHT22;11828;51.508;18.118;2022-09-09T16:39:05;37.00;28.80
23311;DHT22;11828;51.508;18.118;2022-09-09T16:41:33;37.00;28.80
23311;DHT22;11828;51.508;18.118;2022-09-09T16:44:01;36.90;28.90
23311;DHT22;11828;51.508;18.118;2022-09-09T16:46:30;36.90;29.10
23311;DHT22;11828;51.508;18.118;2022-09-09T16:48:59;37.00;29.20
23311;DHT22;11828;51.508;18.118;2022-09-09T16:51:27;37.00;29.30
23311;DHT22;11828;51.508;18.118;2022-09-09T16:54:02;37.10;29.50
23311;DHT22;11828;51.508;18.118;2022-09-09T16:56:31;37.10;29.60
23311;DHT22;11828;51.508;18.118;2022-09-09T16:59:01;37.20;29.80
23311;DHT22;11828;51.508;18.118;2022-09-09T17:01:34;37.20;29.80
23311;DHT22;11828;51.508;18.118;2022-09-09T17:04:05;37.20;30.00
23311;DHT22;11828;51.508;18.118;2022-09-09T17:06:56;37.10;30.00
23311;DHT22;11828;51.508;18.118;2022-09-09T17:09:26;37.20;30.00
23311;DHT22;11828;51.508;18.118;2022-09-09T17:11:57;37.10;30.00
23311;DHT22;11828;51.508;18.118;2022-09-09T17:14:23;37.10;30.20
23311;DHT22;11828;51.508;18.118;2022-09-09T17:16:49;37.00;30.30
23311;DHT22;11828;51.508;18.118;2022-09-09T17:19:16;37.00;30.30
23311;DHT22;11828;51.508;18.118;2022-09-09T17:21:42;37.00;30.50
23311;DHT22;11828;51.508;18.118;2022-09-09T17:24:08;36.90;30.40
23311;DHT22;11828;51.508;18.118;2022-09-09T17:26:34;36.80;30.00
23311;DHT22;11828;51.508;18.118;2022-09-09T17:29:01;36.80;30.00
23311;DHT22;11828;51.508;18.118;2022-09-09T17:31:29;36.70;29.90
23311;DHT22;11828;51.508;18.118;2022-09-09T17:33:55;36.60;30.00
23311;DHT22;11828;51.508;18.118;2022-09-09T17:36:30;36.60;30.20
23311;DHT22;11828;51.508;18.118;2022-09-09T17:38:59;36.50;30.60
23311;DHT22;11828;51.508;18.118;2022-09-09T17:41:28;36.50;30.30
23311;DHT22;11828;51.508;18.118;2022-09-09T17:43:58;36.50;30.50
23311;DHT22;11828;51.508;18.118;2022-09-09T17:46:30;36.40;30.40
23311;DHT22;11828;51.508;18.118;2022-09-09T17:49:08;36.30;30.40
23311;DHT22;11828;51.508;18.118;2022-09-09T17:51:39;36.30;30.50
23311;DHT22;11828;51.508;18.118;2022-09-09T17:54:12;36.20;30.40
23311;DHT22;11828;51.508;18.118;2022-09-09T17:56:42;36.10;30.60
23311;DHT22;11828;51.508;18.118;2022-09-09T17:59:11;36.10;30.80
23311;DHT22;11828;51.508;18.118;2022-09-09T18:01:40;36.10;30.70
23311;DHT22;11828;51.508;18.118;2022-09-09T18:04:10;36.10;30.70
23311;DHT22;11828;51.508;18.118;2022-09-09T18:06:42;36.00;30.60
23311;DHT22;11828;51.508;18.118;2022-09-09T18:09:15;36.00;31.30
23311;DHT22;11828;51.508;18.118;2022-09-09T18:11:45;35.80;30.60
23311;DHT22;11828;51.508;18.118;2022-09-09T18:14:19;35.60;30.80
23311;DHT22;11828;51.508;18.118;2022-09-09T18:16:46;35.60;31.10